Terminal Aerodrome Forecast
Issued by NWS

Home | Current Version | Previous Version | Text Only | Print | Product List | Glossary On
Versions: 1 2 3 4 5 6 7 8 9 10 11 12 13
000
FTUS42 KMLB 271826 AAA
TAFFPR
TAF AMD
KFPR 271826Z 2718/2818 10008KT P6SM VCTS BKN035CB BKN060
      TEMPO 2718/2719 3SM TSRA BKN020CB OVC040
     FM271900 25010KT P6SM VCTS BKN030CB OVC050
      TEMPO 2719/2720 2SM TSRA BKN015CB OVC030
     FM272100 16008KT P6SM VCSH SCT035 BKN080
     FM280200 16004KT P6SM SCT040 BKN100 BKN250
     FM281400 10008KT P6SM SCT025 BKN060 BKN250=

USA.gov is the U.S. government's official web portal to all federal, state and local government web resources and services.